KFOE/FOE METAR and TAF weather

Enter ICAO airport designator
Station Type Date Time Source
KFOE METAR 2022/09/28 18:53 UTC NOAA

KFOE 281853Z 07011G18KT 10SM CLR 23/03 A3037 RMK AO2 SLP280 T02280033


Station Type Date Time Source
KFOE Decoded METAR 2022/09/28 18:53 UTC NOAA

FORBES FIELD, KS, United States (KFOE) 38-56N 95-39W 320M
Sep 28, 2022 - 02:53 PM EDT / 2022.09.28 1853 UTC
Wind: from the ENE (070 degrees) at 13 MPH (11 KT) gusting to 21 MPH (18 KT):0
Visibility: 10 mile(s):0
Sky conditions: clear
Temperature: 73.0 F (22.8 C)
Dew Point: 37.9 F (3.3 C)
Relative Humidity: 27%
Pressure (altimeter): 30.37 in. Hg (1028 hPa)
ob: KFOE 281853Z 07011G18KT 10SM CLR 23/03 A3037 RMK AO2 SLP280 T02280033
cycle: 19

Station Type Date Time Source
KFOE TAF 2022/09/28 18:22 UTC NOAA

TAF KFOE 281720Z 2818/2918 08009KT P6SM SKC

Example: see airport list